Time;durP1;ratioP1;P1;durP2;ratioP2;P2;SDS_P1;SDS_P2;PMS_P1;PMS_P2;Temp;Humidity;BMP_temperature;BMP_pressure;BME280_temperature;BME280_humidity;BME280_pressure;Samples;Min_cycle;Max_cycle;Signal;HPM_P1;HPM_P2
2023/04/30 00:01:33;;;;;;;13.63;8.45;;;;;;;8.61;96.02;101984.41;5001977;28;20420;-71
2023/04/30 00:03:58;;;;;;;16.65;8.55;;;;;;;8.58;95.93;101980.28;5018220;28;20049;-70
2023/04/30 00:06:24;;;;;;;14.27;8.25;;;;;;;8.54;95.80;101984.06;5003031;28;20041;-70
2023/04/30 00:08:49;;;;;;;12.68;8.10;;;;;;;8.51;95.87;101985.13;5001269;28;20049;-70
2023/04/30 00:11:15;;;;;;;15.85;8.27;;;;;;;8.47;95.94;101981.09;5021000;28;20030;-70
2023/04/30 00:13:41;;;;;;;17.60;9.52;;;;;;;8.45;95.90;101980.38;5001920;28;20045;-70
2023/04/30 00:16:07;;;;;;;16.25;9.13;;;;;;;8.43;95.87;101981.44;5017820;28;20034;-70
2023/04/30 00:18:32;;;;;;;15.90;9.15;;;;;;;8.34;96.22;101978.56;5003688;28;20056;-71
2023/04/30 00:20:58;;;;;;;20.20;9.05;;;;;;;8.29;96.13;101980.66;5000831;28;20060;-70
2023/04/30 00:23:23;;;;;;;15.65;9.18;;;;;;;8.26;96.40;101980.06;5017458;28;20053;-70
2023/04/30 00:25:49;;;;;;;17.00;9.18;;;;;;;8.23;96.54;101983.69;5004435;28;20034;-70
2023/04/30 00:28:14;;;;;;;16.17;9.30;;;;;;;8.19;96.66;101988.25;5003103;28;20053;-70
2023/04/30 00:30:39;;;;;;;15.70;8.75;;;;;;;8.15;96.76;101991.16;5002045;28;20045;-70
2023/04/30 00:33:05;;;;;;;13.85;8.52;;;;;;;8.09;97.03;101983.88;4998447;28;20574;-70
2023/04/30 00:35:31;;;;;;;14.35;8.45;;;;;;;7.97;97.41;101981.22;5000666;28;20026;-70
2023/04/30 00:37:56;;;;;;;16.08;9.68;;;;;;;7.89;98.05;101987.88;4997774;28;20030;-70
2023/04/30 00:40:21;;;;;;;17.25;10.18;;;;;;;7.84;98.39;101989.97;5018250;28;20100;-70
2023/04/30 00:42:47;;;;;;;19.02;9.90;;;;;;;7.80;98.81;101991.94;5000629;28;20030;-70
2023/04/30 00:45:13;;;;;;;19.35;9.38;;;;;;;7.75;98.87;101992.25;4999379;28;20038;-69
2023/04/30 00:47:39;;;;;;;17.13;10.35;;;;;;;7.74;98.87;101988.03;5000949;28;20030;-70
2023/04/30 00:50:06;;;;;;;15.07;9.23;;;;;;;7.74;98.96;101990.63;5017280;28;20042;-70
2023/04/30 00:52:31;;;;;;;17.67;9.52;;;;;;;7.72;99.19;101992.50;5001878;28;20723;-70
2023/04/30 00:54:57;;;;;;;19.30;9.25;;;;;;;7.70;98.87;102002.06;4999569;28;20049;-70
2023/04/30 00:57:23;;;;;;;18.58;8.82;;;;;;;7.66;98.77;101998.06;5014916;28;20559;-71
2023/04/30 00:59:50;;;;;;;15.55;9.07;;;;;;;7.63;98.75;101994.88;5001004;28;20048;-69
2023/04/30 01:02:16;;;;;;;16.42;10.00;;;;;;;7.60;99.01;101993.34;5000267;28;20056;-70
2023/04/30 01:04:42;;;;;;;16.67;8.93;;;;;;;7.53;99.23;101994.69;5000328;28;20108;-73
2023/04/30 01:07:08;;;;;;;16.30;9.82;;;;;;;7.48;99.60;101995.03;5002825;28;20038;-73
2023/04/30 01:09:33;;;;;;;17.05;9.77;;;;;;;7.44;99.60;101993.59;4987832;28;20091;-72
2023/04/30 01:12:12;;;;;;;18.05;8.95;;;;;;;7.36;99.70;101994.09;5006841;28;20022;-72
2023/04/30 01:14:40;;;;;;;15.00;9.40;;;;;;;7.26;100.00;102000.81;5007544;28;20077;-72
2023/04/30 01:17:20;;;;;;;15.65;9.00;;;;;;;7.19;100.00;101995.25;4991392;28;20485;-72
2023/04/30 01:19:45;;;;;;;15.38;8.85;;;;;;;7.16;100.00;101997.25;5019845;28;20081;-73
2023/04/30 01:22:26;;;;;;;19.98;9.95;;;;;;;7.08;100.00;101992.56;5007645;28;20048;-72
2023/04/30 01:25:34;;;;;;;16.42;9.57;;;;;;;7.01;100.00;101983.63;4990204;28;20107;-72
2023/04/30 01:28:05;;;;;;;24.17;10.65;;;;;;;6.98;100.00;101986.41;5001353;28;20037;-72
2023/04/30 01:30:33;;;;;;;19.33;10.80;;;;;;;6.93;100.00;101991.03;5005412;28;20440;-72
2023/04/30 01:32:59;;;;;;;14.98;9.70;;;;;;;6.91;100.00;101985.16;5005354;28;20038;-72
2023/04/30 01:35:53;;;;;;;16.63;10.35;;;;;;;6.90;100.00;101986.91;4988779;28;20061;-72
2023/04/30 01:38:59;;;;;;;19.38;10.18;;;;;;;6.87;100.00;101989.69;5004298;28;20042;-72
2023/04/30 01:41:36;;;;;;;21.00;10.77;;;;;;;6.81;100.00;101983.19;4988353;28;20099;-72
2023/04/30 01:44:13;;;;;;;16.52;10.25;;;;;;;6.79;100.00;101984.22;5007867;28;20492;-72
2023/04/30 01:46:41;;;;;;;19.23;9.50;;;;;;;6.76;100.00;101992.16;5023109;28;20041;-72
2023/04/30 01:49:33;;;;;;;18.95;10.02;;;;;;;6.71;100.00;101986.50;5003782;28;20512;-72
2023/04/30 01:52:15;;;;;;;14.32;8.93;;;;;;;6.62;100.00;101993.91;4991418;28;20424;-72
2023/04/30 01:54:48;;;;;;;19.73;11.40;;;;;;;6.59;100.00;101991.53;5008125;28;20098;-72
2023/04/30 01:57:37;;;;;;;17.27;10.25;;;;;;;6.55;100.00;101995.22;5000696;28;20034;-72
2023/04/30 02:00:04;;;;;;;19.08;9.75;;;;;;;6.49;100.00;101989.66;5001112;28;20045;-72
2023/04/30 02:02:38;;;;;;;18.75;11.05;;;;;;;6.47;100.00;101994.91;5005384;28;20461;-72
2023/04/30 02:05:04;;;;;;;18.88;10.10;;;;;;;6.46;100.00;101995.00;5004604;28;20073;-72
2023/04/30 02:07:42;;;;;;;16.67;9.80;;;;;;;6.43;100.00;101993.47;5021445;28;20743;-72
2023/04/30 02:10:10;;;;;;;17.13;10.18;;;;;;;6.39;100.00;101989.44;5003375;28;20410;-73
2023/04/30 02:12:36;;;;;;;17.90;10.57;;;;;;;6.38;100.00;101996.31;5019732;28;20508;-73
2023/04/30 02:15:03;;;;;;;20.30;10.70;;;;;;;6.36;100.00;101989.63;5005673;28;20057;-73
2023/04/30 02:17:28;;;;;;;20.17;11.27;;;;;;;6.34;100.00;101994.88;5000975;28;20033;-73
2023/04/30 02:19:54;;;;;;;19.73;10.75;;;;;;;6.31;100.00;101991.66;5005464;28;20045;-72
2023/04/30 02:22:19;;;;;;;17.48;10.25;;;;;;;6.29;100.00;102002.09;5002414;28;20409;-72
2023/04/30 02:24:45;;;;;;;17.80;10.15;;;;;;;6.30;100.00;101998.56;5005679;28;20046;-73
2023/04/30 02:27:10;;;;;;;20.05;10.13;;;;;;;6.32;100.00;102001.06;4988611;28;20789;-72
2023/04/30 02:29:36;;;;;;;18.83;10.93;;;;;;;6.30;100.00;101996.00;5022569;28;20034;-73
2023/04/30 02:32:01;;;;;;;23.63;11.20;;;;;;;6.30;100.00;101995.19;5020747;28;20034;-72
2023/04/30 02:34:27;;;;;;;23.17;11.13;;;;;;;6.25;100.00;101992.88;4989392;28;20045;-73
2023/04/30 02:36:52;;;;;;;21.58;11.10;;;;;;;6.19;100.00;101990.72;4986722;28;20034;-72
2023/04/30 02:39:18;;;;;;;25.73;12.25;;;;;;;6.17;100.00;102001.09;5004211;28;20064;-73
2023/04/30 02:41:43;;;;;;;20.75;11.65;;;;;;;6.12;100.00;101997.16;5008069;28;20033;-73
2023/04/30 02:44:10;;;;;;;25.95;12.27;;;;;;;6.08;100.00;101991.38;5006133;28;20133;-73
2023/04/30 02:46:35;;;;;;;23.90;11.55;;;;;;;6.07;100.00;101997.47;5001074;28;20113;-73
2023/04/30 02:49:01;;;;;;;20.75;11.98;;;;;;;6.05;100.00;101983.88;5016826;28;20054;-72
2023/04/30 02:51:27;;;;;;;22.77;12.15;;;;;;;6.03;100.00;101986.53;5006003;28;20026;-72
2023/04/30 02:53:53;;;;;;;20.83;12.20;;;;;;;5.99;100.00;101987.66;5004342;28;20049;-72
2023/04/30 02:56:18;;;;;;;24.92;12.13;;;;;;;5.97;100.00;101989.50;5020064;28;20033;-72
2023/04/30 02:58:44;;;;;;;22.55;11.48;;;;;;;5.96;100.00;101985.28;5003710;28;20054;-72
2023/04/30 03:01:10;;;;;;;22.58;12.10;;;;;;;5.95;100.00;101980.19;5008684;28;20041;-73
2023/04/30 03:03:35;;;;;;;21.15;11.35;;;;;;;5.92;100.00;101980.41;5008375;28;20034;-73
2023/04/30 03:06:01;;;;;;;19.20;12.20;;;;;;;5.92;100.00;101977.81;5024354;28;20042;-72
2023/04/30 03:08:26;;;;;;;20.20;11.50;;;;;;;5.89;100.00;101978.00;5023817;28;20037;-72
2023/04/30 03:10:52;;;;;;;23.13;12.30;;;;;;;5.79;100.00;101980.34;5007848;28;20068;-73
2023/04/30 03:13:17;;;;;;;21.73;11.60;;;;;;;5.72;100.00;101984.22;4991745;28;20045;-73
2023/04/30 03:15:43;;;;;;;21.27;12.23;;;;;;;5.67;100.00;101987.06;5005335;28;20038;-72
2023/04/30 03:18:09;;;;;;;21.45;12.25;;;;;;;5.70;100.00;101991.19;5007244;28;20496;-73
2023/04/30 03:20:35;;;;;;;25.90;13.23;;;;;;;5.65;100.00;101984.59;5004234;28;20022;-74
2023/04/30 03:23:01;;;;;;;22.13;13.00;;;;;;;5.63;100.00;101986.44;4987690;28;20104;-72
2023/04/30 03:25:26;;;;;;;20.90;11.60;;;;;;;5.62;100.00;101989.91;5007809;28;20121;-72
2023/04/30 03:27:52;;;;;;;19.77;11.73;;;;;;;5.61;100.00;101993.44;5024273;28;20041;-72
2023/04/30 03:30:17;;;;;;;19.27;11.40;;;;;;;5.57;100.00;101997.09;4990098;28;20026;-72
2023/04/30 03:32:43;;;;;;;20.85;11.20;;;;;;;5.53;100.00;101993.06;5004473;28;20132;-72
2023/04/30 03:35:09;;;;;;;18.23;10.90;;;;;;;5.52;100.00;101988.84;5002042;28;20077;-72
2023/04/30 03:37:35;;;;;;;20.67;11.48;;;;;;;5.49;100.00;101993.34;5019187;28;20100;-72
2023/04/30 03:40:00;;;;;;;23.83;12.63;;;;;;;5.49;100.00;101996.75;4987301;28;20282;-73
2023/04/30 03:42:26;;;;;;;25.33;13.52;;;;;;;5.48;100.00;102000.22;5007299;28;20956;-72
2023/04/30 03:44:51;;;;;;;23.13;11.88;;;;;;;5.45;100.00;101996.09;4991467;28;20046;-72
2023/04/30 03:47:17;;;;;;;23.02;12.95;;;;;;;5.44;100.00;101999.59;5006226;28;20030;-72
2023/04/30 03:49:42;;;;;;;24.58;13.13;;;;;;;5.43;100.00;101997.94;5003587;28;20096;-73
2023/04/30 03:52:08;;;;;;;24.70;13.23;;;;;;;5.41;100.00;102001.53;4992438;28;20385;-72
2023/04/30 03:54:33;;;;;;;21.77;12.93;;;;;;;5.37;100.00;101994.91;5023169;28;20038;-72
2023/04/30 03:57:03;;;;;;;25.13;12.75;;;;;;;5.30;100.00;101997.03;5006919;28;20448;-73
2023/04/30 03:59:30;;;;;;;28.27;13.75;;;;;;;5.23;100.00;101988.03;5006484;28;20488;-73
2023/04/30 04:01:56;;;;;;;21.25;12.70;;;;;;;5.19;100.00;101989.13;5004549;28;20409;-72
2023/04/30 04:04:21;;;;;;;25.77;12.93;;;;;;;5.15;100.00;101993.63;5004337;28;20097;-72
2023/04/30 04:06:47;;;;;;;24.50;13.02;;;;;;;5.11;100.00;101993.91;5005128;28;20034;-72
2023/04/30 04:09:12;;;;;;;23.02;12.55;;;;;;;5.06;100.00;101987.28;5004170;28;21123;-72
2023/04/30 04:11:40;;;;;;;30.52;15.50;;;;;;;5.04;100.00;101988.28;5003092;28;20036;-73
2023/04/30 04:14:06;;;;;;;27.30;14.82;;;;;;;5.04;100.00;101996.00;5010447;28;20046;-72
2023/04/30 04:16:31;;;;;;;25.13;13.70;;;;;;;5.03;100.00;101986.66;5021811;28;20084;-71
2023/04/30 04:18:57;;;;;;;22.25;12.60;;;;;;;5.01;100.00;101997.03;5004254;28;20041;-73
2023/04/30 04:21:22;;;;;;;23.08;12.98;;;;;;;5.00;100.00;101982.50;4991053;28;20030;-72
2023/04/30 04:23:48;;;;;;;23.67;12.63;;;;;;;5.00;100.00;101990.22;5007295;28;20037;-72
2023/04/30 04:26:15;;;;;;;23.40;13.35;;;;;;;4.99;100.00;101988.59;5008048;28;20061;-72
2023/04/30 04:28:41;;;;;;;26.58;13.68;;;;;;;4.97;100.00;101992.16;5004829;28;20053;-73
2023/04/30 04:31:06;;;;;;;25.17;14.30;;;;;;;4.93;100.00;102000.97;5020220;28;20038;-72
2023/04/30 04:33:32;;;;;;;24.55;13.82;;;;;;;4.91;100.00;101998.47;5007428;28;20271;-72
2023/04/30 04:35:58;;;;;;;27.15;14.63;;;;;;;4.86;100.00;101998.75;5008278;28;20034;-72
2023/04/30 04:38:25;;;;;;;24.10;12.77;;;;;;;4.83;100.00;101993.78;5007480;28;20038;-72
2023/04/30 04:40:55;;;;;;;22.42;13.05;;;;;;;4.78;100.00;101997.53;5005654;28;20037;-72
2023/04/30 04:43:21;;;;;;;22.23;12.73;;;;;;;4.71;100.00;102004.78;4987166;28;20042;-72
2023/04/30 04:45:47;;;;;;;23.20;14.00;;;;;;;4.68;100.00;102010.91;5007906;28;20026;-73
2023/04/30 04:48:14;;;;;;;22.55;11.68;;;;;;;4.65;100.00;102018.81;5007203;28;20092;-71
2023/04/30 04:50:39;;;;;;;24.42;11.63;;;;;;;4.64;100.00;102012.00;5006666;28;20080;-73
2023/04/30 04:53:05;;;;;;;22.15;11.98;;;;;;;4.65;100.00;102012.81;5022133;28;20046;-72
2023/04/30 04:55:31;;;;;;;26.50;12.68;;;;;;;4.68;100.00;102010.91;5004678;28;20072;-72
2023/04/30 04:57:56;;;;;;;32.22;13.50;;;;;;;4.74;100.00;102021.75;5006518;28;20060;-73
2023/04/30 05:00:22;;;;;;;23.80;13.27;;;;;;;4.79;100.00;102019.75;5004158;28;20045;-72
2023/04/30 05:02:48;;;;;;;25.55;14.88;;;;;;;4.83;100.00;102022.06;5005166;28;20033;-71
2023/04/30 05:05:14;;;;;;;22.63;13.32;;;;;;;4.90;100.00;102021.69;5006022;28;20079;-72
2023/04/30 05:07:40;;;;;;;25.67;14.82;;;;;;;4.93;100.00;102032.63;5007391;28;20030;-72
2023/04/30 05:10:07;;;;;;;27.00;14.80;;;;;;;4.98;100.00;102032.38;5003615;28;20444;-72
2023/04/30 05:12:32;;;;;;;32.10;15.65;;;;;;;5.02;100.00;102042.38;5002614;28;20041;-72
2023/04/30 05:14:58;;;;;;;25.60;15.40;;;;;;;5.06;100.00;102036.13;5007087;28;20048;-72
2023/04/30 05:17:24;;;;;;;30.27;15.80;;;;;;;5.14;100.00;102034.84;5006451;28;20038;-72
2023/04/30 05:19:51;;;;;;;26.95;15.57;;;;;;;5.18;100.00;102036.31;5006924;28;20049;-72
2023/04/30 05:22:16;;;;;;;28.42;16.08;;;;;;;5.24;100.00;102043.69;5005792;28;20040;-72
2023/04/30 05:24:42;;;;;;;27.88;16.13;;;;;;;5.30;100.00;102037.38;5006400;28;20097;-72
2023/04/30 05:27:08;;;;;;;26.80;15.15;;;;;;;5.35;100.00;102041.31;5000598;28;20041;-72
2023/04/30 05:29:33;;;;;;;32.40;16.92;;;;;;;5.42;100.00;102039.19;5006833;28;20053;-72
2023/04/30 05:31:59;;;;;;;29.27;15.75;;;;;;;5.44;100.00;102033.06;5006321;28;20036;-72
2023/04/30 05:34:24;;;;;;;30.80;15.65;;;;;;;5.49;100.00;102040.47;5017556;28;20072;-72
2023/04/30 05:36:50;;;;;;;26.25;15.27;;;;;;;5.55;100.00;102039.28;5007950;28;20033;-72
2023/04/30 05:39:15;;;;;;;27.80;14.73;;;;;;;5.60;100.00;102043.22;5006847;28;20037;-72
2023/04/30 05:41:41;;;;;;;29.00;15.35;;;;;;;5.68;100.00;102052.25;4990102;28;20034;-72
2023/04/30 05:44:06;;;;;;;27.48;15.43;;;;;;;5.73;100.00;102045.06;5006878;28;20060;-72
2023/04/30 05:46:32;;;;;;;27.83;15.85;;;;;;;5.82;100.00;102052.19;5005689;28;20029;-72
2023/04/30 05:48:57;;;;;;;34.35;18.13;;;;;;;5.93;100.00;102052.38;5005968;28;20042;-73
2023/04/30 05:51:23;;;;;;;32.70;16.60;;;;;;;6.06;100.00;102056.81;5006648;28;20591;-73
2023/04/30 05:53:48;;;;;;;34.45;18.70;;;;;;;6.26;100.00;102060.72;5004231;28;20038;-73
2023/04/30 05:56:14;;;;;;;45.15;22.20;;;;;;;6.62;100.00;102052.38;5007168;28;20480;-72
2023/04/30 05:58:39;;;;;;;36.05;20.13;;;;;;;6.98;100.00;102046.53;5000009;28;20046;-72
2023/04/30 06:01:05;;;;;;;36.47;19.30;;;;;;;7.37;100.00;102051.72;4989370;28;20025;-73
2023/04/30 06:03:30;;;;;;;35.10;18.73;;;;;;;7.73;100.00;102045.75;5007313;28;20052;-73
2023/04/30 06:05:56;;;;;;;31.88;18.27;;;;;;;8.08;100.00;102045.03;5004045;28;20108;-72
2023/04/30 06:08:22;;;;;;;33.28;17.77;;;;;;;8.30;100.00;102052.06;5004965;28;20053;-72
2023/04/30 06:10:47;;;;;;;31.67;16.80;;;;;;;8.46;100.00;102038.91;5004964;28;20030;-72
2023/04/30 06:13:13;;;;;;;25.58;15.40;;;;;;;8.73;99.90;102043.81;5004141;28;20049;-72
2023/04/30 06:15:40;;;;;;;30.83;17.30;;;;;;;8.85;97.74;102049.00;5006185;28;20433;-73
2023/04/30 06:18:06;;;;;;;28.45;16.70;;;;;;;9.02;96.58;102037.38;5004727;28;20045;-72
2023/04/30 06:20:31;;;;;;;24.50;14.70;;;;;;;9.20;95.94;102045.53;5007136;28;20049;-73
2023/04/30 06:22:57;;;;;;;27.25;15.13;;;;;;;9.30;94.93;102028.34;5004364;28;20037;-72
2023/04/30 06:25:22;;;;;;;25.63;15.50;;;;;;;9.41;94.36;102033.53;5002761;28;20034;-74
2023/04/30 06:27:50;;;;;;;26.08;14.77;;;;;;;9.51;94.26;102037.06;5005411;28;20034;-72
2023/04/30 06:30:16;;;;;;;26.50;14.80;;;;;;;9.47;93.15;102030.47;5005038;28;20021;-72
2023/04/30 06:32:41;;;;;;;24.60;14.13;;;;;;;9.25;93.31;102027.88;5005549;28;20391;-73
2023/04/30 06:35:07;;;;;;;27.42;14.82;;;;;;;9.03;95.03;102037.28;5018664;28;20112;-73
2023/04/30 06:37:36;;;;;;;30.58;17.45;;;;;;;9.01;95.30;102044.34;5008603;28;21449;-72
2023/04/30 06:40:04;;;;;;;31.55;14.75;;;;;;;8.84;95.52;102035.25;5020541;28;20416;-72
2023/04/30 06:42:33;;;;;;;26.17;15.40;;;;;;;8.75;97.05;102035.94;5007611;28;20026;-72
2023/04/30 06:45:01;;;;;;;27.95;15.45;;;;;;;8.74;98.06;102040.28;5007839;28;20532;-72
2023/04/30 06:47:26;;;;;;;24.17;14.40;;;;;;;8.66;96.10;102036.59;5010470;28;20084;-72
2023/04/30 06:49:52;;;;;;;26.58;13.30;;;;;;;8.82;97.03;102039.72;5013252;28;20124;-72
2023/04/30 06:52:17;;;;;;;25.25;14.85;;;;;;;8.96;97.34;102030.91;5011695;28;20037;-73
2023/04/30 06:54:43;;;;;;;30.88;15.18;;;;;;;9.16;97.47;102029.41;5009288;28;20061;-72
2023/04/30 06:57:08;;;;;;;30.35;16.58;;;;;;;9.40;96.53;102031.91;5020575;28;20035;-73
2023/04/30 06:59:34;;;;;;;24.42;13.02;;;;;;;9.58;95.22;102034.00;5007586;28;20053;-73
2023/04/30 07:01:59;;;;;;;27.90;14.15;;;;;;;9.94;92.55;102035.47;5009315;28;20042;-73
2023/04/30 07:04:26;;;;;;;19.67;12.85;;;;;;;10.59;89.73;102030.31;5006840;28;20042;-72
2023/04/30 07:06:51;;;;;;;22.27;13.73;;;;;;;11.43;85.85;102023.22;5008282;28;20364;-73
2023/04/30 07:09:17;;;;;;;17.63;11.52;;;;;;;12.07;81.74;102021.19;5009276;28;20057;-72
2023/04/30 07:11:43;;;;;;;21.17;12.77;;;;;;;12.58;79.27;102025.28;5009110;28;20029;-73
2023/04/30 07:14:08;;;;;;;24.73;12.73;;;;;;;13.21;76.35;102021.25;5009221;28;20489;-73
2023/04/30 07:16:34;;;;;;;20.13;11.35;;;;;;;13.82;73.62;102020.69;4993496;28;20041;-74
2023/04/30 07:18:59;;;;;;;16.60;11.02;;;;;;;14.18;70.58;102010.28;5009013;23;20050;-70
2023/04/30 07:21:25;;;;;;;20.70;10.55;;;;;;;14.30;68.95;102013.47;4959272;28;20039;-70
2023/04/30 07:23:50;;;;;;;22.40;12.27;;;;;;;14.38;68.11;102010.09;4959490;28;20043;-70
2023/04/30 07:26:16;;;;;;;19.65;11.73;;;;;;;14.28;66.87;102010.19;4981331;28;20077;-70
2023/04/30 07:28:42;;;;;;;17.15;10.45;;;;;;;14.70;66.67;102009.53;4980384;28;20054;-70
2023/04/30 07:31:07;;;;;;;19.90;10.45;;;;;;;15.41;66.59;102010.19;4982746;28;20030;-70
2023/04/30 07:33:33;;;;;;;18.65;10.27;;;;;;;15.62;61.58;102007.16;4980908;28;20556;-70
2023/04/30 07:35:58;;;;;;;16.42;10.07;;;;;;;15.49;63.11;102018.06;4979080;28;20031;-70
2023/04/30 07:38:24;;;;;;;14.95;9.57;;;;;;;15.61;62.98;102007.28;4980932;28;20517;-70
2023/04/30 07:40:49;;;;;;;13.90;8.85;;;;;;;15.93;61.90;102012.59;4979560;28;20043;-70
2023/04/30 07:43:15;;;;;;;16.13;9.43;;;;;;;15.29;61.59;102012.25;4963619;28;20039;-70
2023/04/30 07:45:41;;;;;;;15.23;9.77;;;;;;;15.85;62.16;102009.19;4965523;28;20039;-70
2023/04/30 07:48:06;;;;;;;17.15;9.68;;;;;;;15.42;62.59;102005.78;4963440;28;20512;-70
2023/04/30 07:50:35;;;;;;;19.60;10.05;;;;;;;16.27;60.14;102001.16;4977096;28;20984;-70
2023/04/30 07:53:01;;;;;;;18.08;9.75;;;;;;;16.30;59.00;101998.22;4961564;28;20034;-70
2023/04/30 07:55:27;;;;;;;15.13;9.30;;;;;;;16.53;58.30;102006.22;4945010;28;20370;-70
2023/04/30 07:57:52;;;;;;;14.30;8.80;;;;;;;17.03;57.69;102006.16;4978943;28;20097;-70
2023/04/30 08:00:18;;;;;;;15.90;8.77;;;;;;;17.11;55.05;102004.28;4975806;28;20047;-70
2023/04/30 08:02:44;;;;;;;13.88;9.07;;;;;;;17.20;57.06;102004.28;4963739;28;20043;-70
2023/04/30 08:05:10;;;;;;;19.30;10.52;;;;;;;17.40;55.52;102002.84;4958998;28;20055;-70
2023/04/30 08:07:36;;;;;;;14.02;8.75;;;;;;;17.64;54.85;102009.75;4965633;28;20050;-70
2023/04/30 08:10:01;;;;;;;13.80;8.57;;;;;;;17.91;54.26;102005.03;4975219;28;20070;-70
2023/04/30 08:12:26;;;;;;;14.85;8.70;;;;;;;17.86;53.48;102000.31;4966143;28;20117;-70
2023/04/30 08:15:00;;;;;;;14.38;8.05;;;;;;;18.00;53.90;102009.22;4977632;28;20059;-70
2023/04/30 08:17:26;;;;;;;17.42;8.55;;;;;;;18.06;52.85;102002.44;4966541;28;20434;-70
2023/04/30 08:19:51;;;;;;;13.57;8.82;;;;;;;18.04;53.34;102002.63;4962999;28;20154;-70
2023/04/30 08:22:16;;;;;;;14.23;9.07;;;;;;;18.05;54.67;102000.84;4975847;28;20509;-70
2023/04/30 08:24:42;;;;;;;12.25;8.25;;;;;;;18.24;54.01;102002.16;4959048;28;20158;-70
2023/04/30 08:27:07;;;;;;;15.48;8.48;;;;;;;18.33;52.29;102000.25;4979022;28;20023;-70
2023/04/30 08:29:33;;;;;;;18.75;8.52;;;;;;;18.43;53.44;101998.19;4961668;28;20054;-70
2023/04/30 08:32:02;;;;;;;13.95;7.63;;;;;;;18.14;51.71;102002.41;4965771;28;20038;-70
2023/04/30 08:34:28;;;;;;;13.32;8.32;;;;;;;18.28;51.98;102003.41;4979365;28;20055;-71
2023/04/30 08:36:53;;;;;;;13.20;8.90;;;;;;;18.55;52.99;102001.19;4981692;28;20712;-70
2023/04/30 08:39:19;;;;;;;16.02;8.10;;;;;;;18.57;52.05;102000.03;4962142;28;20046;-70
2023/04/30 08:41:54;;;;;;;11.15;7.68;;;;;;;18.85;51.46;101996.78;4964243;28;20050;-70
2023/04/30 08:44:21;;;;;;;12.85;7.20;;;;;;;18.93;50.17;101999.34;4960389;28;20050;-70
2023/04/30 08:46:52;;;;;;;11.57;7.15;;;;;;;18.76;50.20;101995.22;4974452;28;20023;-70
2023/04/30 08:49:18;;;;;;;11.27;7.05;;;;;;;18.84;50.02;101993.34;4980099;28;20053;-70
2023/04/30 08:51:45;;;;;;;12.32;7.20;;;;;;;18.72;50.74;101991.31;4964624;28;20046;-70
2023/04/30 08:54:12;;;;;;;11.93;7.03;;;;;;;18.80;49.66;101991.25;4974640;28;20043;-70
2023/04/30 08:56:38;;;;;;;11.77;6.63;;;;;;;18.76;50.98;101984.72;4957505;28;20031;-69
2023/04/30 08:59:04;;;;;;;11.30;6.72;;;;;;;18.60;50.00;101991.78;4978178;28;20805;-70
2023/04/30 09:01:29;;;;;;;6.95;4.45;;;;;;;19.00;48.40;101986.28;4978842;28;20027;-70
2023/04/30 09:03:55;;;;;;;18.73;8.55;;;;;;;18.79;48.33;101985.16;4961177;28;20528;-70
2023/04/30 09:06:21;;;;;;;7.38;4.63;;;;;;;18.60;49.19;101983.09;4976106;28;20548;-70
2023/04/30 09:08:48;;;;;;;7.55;4.35;;;;;;;19.03;48.67;101980.66;4961003;28;20047;-70
2023/04/30 09:11:29;;;;;;;6.72;4.25;;;;;;;19.44;47.71;101972.22;4961210;28;20089;-70
2023/04/30 09:13:58;;;;;;;6.70;3.80;;;;;;;19.12;47.35;101978.72;4962332;28;20046;-70
2023/04/30 09:16:25;;;;;;;8.18;4.70;;;;;;;19.03;48.19;101975.41;4976055;28;20035;-70
2023/04/30 09:18:51;;;;;;;9.10;4.85;;;;;;;18.93;47.59;101973.06;4962446;28;20564;-70
2023/04/30 09:21:30;;;;;;;7.93;5.18;;;;;;;18.99;48.86;101974.97;4976906;28;20576;-70
2023/04/30 09:23:57;;;;;;;10.23;5.55;;;;;;;19.05;47.45;101971.59;4960727;28;20045;-70
2023/04/30 09:26:37;;;;;;;7.93;4.68;;;;;;;19.08;49.19;101970.41;4962135;28;20039;-70
2023/04/30 09:29:06;;;;;;;6.97;3.83;;;;;;;18.71;47.72;101976.59;4978106;28;20070;-71
2023/04/30 09:31:34;;;;;;;4.70;2.60;;;;;;;18.77;48.20;101960.09;4963291;28;20039;-70
2023/04/30 09:33:59;;;;;;;6.70;3.50;;;;;;;18.38;49.25;101969.84;4958373;28;20517;-70
2023/04/30 09:36:25;;;;;;;5.65;3.10;;;;;;;18.20;48.94;101958.88;4945447;28;20046;-70
2023/04/30 09:38:50;;;;;;;6.57;4.43;;;;;;;18.37;50.20;101949.84;4978433;28;20051;-69
2023/04/30 09:41:26;;;;;;;4.43;3.10;;;;;;;18.18;49.58;101951.19;4961515;28;20039;-71
2023/04/30 09:43:53;;;;;;;3.72;2.58;;;;;;;18.24;48.23;101960.16;4974405;28;20066;-70
2023/04/30 09:46:20;;;;;;;4.93;3.28;;;;;;;18.64;50.36;101950.22;4978622;28;20047;-70
2023/04/30 09:48:46;;;;;;;7.60;4.45;;;;;;;19.20;49.69;101950.53;4959879;28;20541;-70
2023/04/30 09:51:12;;;;;;;6.25;4.40;;;;;;;19.44;48.28;101953.81;4977200;28;20513;-70
2023/04/30 09:53:41;;;;;;;6.30;3.95;;;;;;;19.49;48.14;101940.91;4962560;28;20046;-70
2023/04/30 09:56:07;;;;;;;4.38;2.83;;;;;;;19.31;46.95;101961.53;4961159;28;20371;-72
2023/04/30 09:58:37;;;;;;;3.47;1.73;;;;;;;19.08;46.05;101957.28;4975121;28;20122;-70
2023/04/30 10:01:09;;;;;;;2.55;1.55;;;;;;;19.06;46.56;101949.56;4976293;28;20054;-71
2023/04/30 10:03:37;;;;;;;3.75;2.33;;;;;;;19.05;47.33;101957.63;4962140;28;20134;-70
2023/04/30 10:06:03;;;;;;;4.13;2.40;;;;;;;19.37;45.68;101950.31;4975757;28;20134;-70
2023/04/30 10:08:43;;;;;;;3.40;2.63;;;;;;;19.17;46.85;101943.00;4976031;28;20608;-70
2023/04/30 10:11:15;;;;;;;4.03;2.67;;;;;;;19.08;46.37;101935.41;4962257;28;20058;-70
2023/04/30 10:14:02;;;;;;;4.45;2.40;;;;;;;19.19;47.72;101935.78;4959036;28;20116;-70
2023/04/30 10:16:57;;;;;;;4.40;2.38;;;;;;;19.23;47.01;101934.41;4975822;28;20115;-70
2023/04/30 10:19:24;;;;;;;4.95;2.33;;;;;;;19.41;47.99;101931.31;4962421;28;20543;-70
2023/04/30 10:21:51;;;;;;;3.20;1.77;;;;;;;19.40;45.09;101934.97;4961318;28;20030;-70
2023/04/30 10:24:19;;;;;;;2.65;1.58;;;;;;;19.37;44.50;101929.28;4963628;28;20073;-71
2023/04/30 10:26:49;;;;;;;3.72;1.67;;;;;;;19.07;46.13;101934.59;4961300;28;20063;-70
2023/04/30 10:29:15;;;;;;;3.05;1.60;;;;;;;18.76;46.72;101922.50;4976388;28;20078;-70
2023/04/30 10:31:47;;;;;;;4.20;2.60;;;;;;;18.61;49.89;101929.56;4959680;28;20038;-70
2023/04/30 10:34:28;;;;;;;4.85;3.08;;;;;;;19.11;48.07;101924.53;4977071;28;20100;-70
2023/04/30 10:36:58;;;;;;;7.15;2.10;;;;;;;19.19;47.29;101917.38;4973054;28;20031;-70
2023/04/30 10:39:28;;;;;;;6.57;2.67;;;;;;;19.18;48.36;101920.97;4962229;28;20125;-71
2023/04/30 10:42:05;;;;;;;5.10;3.10;;;;;;;19.31;47.86;101922.09;4956794;28;20034;-70
2023/04/30 10:44:35;;;;;;;3.83;2.42;;;;;;;19.41;46.57;101920.00;4975189;28;20500;-71
2023/04/30 10:47:02;;;;;;;7.75;3.47;;;;;;;19.30;47.02;101918.66;4977213;28;20045;-70
2023/04/30 10:49:28;;;;;;;6.13;3.67;;;;;;;19.47;48.09;101913.19;4962905;28;20074;-70
2023/04/30 10:51:55;;;;;;;5.95;3.80;;;;;;;19.15;47.95;101902.13;4961815;28;20078;-70
2023/04/30 10:54:25;;;;;;;6.90;3.95;;;;;;;19.16;49.84;101899.31;4975050;28;20050;-71
2023/04/30 10:56:51;;;;;;;9.30;5.40;;;;;;;18.91;49.10;101893.59;4980307;28;20448;-71
2023/04/30 10:59:18;;;;;;;9.38;4.55;;;;;;;18.55;48.73;101896.13;4963086;28;20122;-71
2023/04/30 11:01:58;;;;;;;6.82;3.35;;;;;;;18.74;50.04;101889.50;4947833;28;21491;-70
2023/04/30 11:04:24;;;;;;;5.22;3.95;;;;;;;19.07;50.81;101892.56;4977480;28;20050;-71
2023/04/30 11:06:55;;;;;;;5.00;3.10;;;;;;;19.35;48.89;101892.63;4963226;28;20070;-70
2023/04/30 11:09:43;;;;;;;3.88;2.63;;;;;;;19.15;47.17;101883.75;4973630;28;20480;-71
2023/04/30 11:12:11;;;;;;;4.72;2.80;;;;;;;19.15;46.89;101883.75;4960471;28;20058;-70
2023/04/30 11:14:41;;;;;;;7.35;3.15;;;;;;;19.54;47.89;101874.59;4979761;28;20042;-70
2023/04/30 11:17:07;;;;;;;4.78;3.28;;;;;;;19.62;48.27;101864.75;4965448;28;20144;-70
2023/04/30 11:19:33;;;;;;;6.70;2.85;;;;;;;19.53;46.77;101871.13;4960043;28;20077;-70